Station info - map view · info · telemetry · weather · raw · status · beacons · messages · bulletins · browse · moving · my account
Callsign, ship name or locator: Clear       
It is possible to search using wildcards (*?) after a prefix. Example: OH*
APRS station KJ7FTU-9 - show graphs
Map loading...
Comment: 146.520MHz listening here
Mic-E message: In service
Location: 45°47.45' N 122°33.65' W - locator CN85RS29QT - show map - static map
2.2 miles North bearing 359° from Meadow Glade, Clark County, Washington, United States [?]
4.1 miles North bearing 350° from Brush Prairie, Clark County, Washington, United States
11.6 miles Northeast bearing 25° from Vancouver, Clark County, Washington, United States
19.3 miles North bearing 17° from Portland, Multnomah County, Oregon, United States
Last position: 2020-09-07 20:06:31 EDT (12d 17h37m ago)
2020-09-07 17:06:31 PDT local time at Meadow Glade, United States [?]
Altitude: 269 ft
Position ambiguous: Precision reduced at transmitter by 1 digits, position resolution approximately 202.3 yards.
Course: 183°
Speed: 0 MPH
Device: Yaesu: FTM-400DR (rig)
Last path: KJ7FTU-9>T5TWTZ via LARCH,WIDE1*,WIDE2-1,qAR,N7TNG-1 (good)
Positions stored: 1935
Stations near current position of KJ7FTU-9 - show more
callsign distance last heard - EDT      callsign distance last heard - EDT
EW66500.4 miles 298°2020-09-20 13:40:03 KD7RUS-40.6 miles 61°2020-09-05 15:38:34
KB7RQQ-71.1 miles 62°2020-09-20 13:17:08 KB7RQQ-91.1 miles 62°2020-09-20 13:34:54
K7YFJ-101.4 miles 140°2020-09-20 13:16:48 K7YFJ-111.4 miles 140°2020-09-20 13:16:50
K7YFJ-121.4 miles 140°2020-09-20 13:16:51 DW89462.0 miles 141°2020-09-20 13:35:05
N138GM2.7 miles 342°2020-09-05 13:48:15 EW28342.8 miles 105°2020-09-20 13:40:15
KF7DLG2.9 miles 157°2020-09-19 19:30:54 IRLP-33293.0 miles 159°2020-09-10 11:30:17
IRLP-70923.0 miles 159°2020-09-14 15:01:25 N7QXO-143.0 miles 158°2020-09-18 11:43:22
N7QXM3.0 miles 158°2020-09-20 07:50:58 EW28373.0 miles 78°2020-09-20 13:41:04
CW50533.0 miles 78°2020-09-20 13:42:28 N0TLZ-73.9 miles 224°2020-09-17 23:48:39
AC7NB-94.0 miles 176°2020-09-16 15:55:31 370836272 PA4.2 miles 110°2020-09-19 00:50:05
Stations which heard KJ7FTU-9 directly on radio –
callsign pkts first heard - EDT last heard longest (tx => rx) longest at - EDT
LARCH 35 2020-09-07 13:41:37 2020-09-07 20:06:31 CN85RS > CN85UR 13.7 miles 112° 2020-09-07 20:06:31
MEGLER 1 2020-09-07 17:58:16 2020-09-07 17:58:16 CN85VS > CN86BG 86.8 miles 295° 2020-09-07 17:58:16
LOKOUT 3 2020-09-07 17:15:04 2020-09-07 18:08:06 CN85US > CN85WT 8.6 miles 81° 2020-09-07 17:15:04
K6MRC-1 20 2020-09-07 13:40:08 2020-09-07 19:05:56 CN85VS > CN85PN 27.8 miles 237° 2020-09-07 18:14:06
W7SRA 2 2020-09-07 16:17:32 2020-09-07 17:12:54 CN85US > CN84KU 76.2 miles 212° 2020-09-07 17:12:54
N7TNG-1 9 2020-09-07 14:09:57 2020-09-07 16:09:31 CN85UQ > CN85PP 19.7 miles 263° 2020-09-07 15:32:34
BALDPK 24 2020-09-07 14:12:15 2020-09-07 19:32:19 CN85VS > CN85LJ 46.8 miles 236° 2020-09-07 17:34:27
BEAVRT 3 2020-09-07 14:26:05 2020-09-07 15:50:59 CN85UQ > CN85OK 32.1 miles 237° 2020-09-07 15:02:28
NICOLI 12 2020-09-07 17:20:59 2020-09-07 19:00:29 CN85VS > CN86GC 62.3 miles 291° 2020-09-07 18:02:03
MEISNR 19 2020-09-07 13:42:08 2020-09-07 19:33:23 CN85VS > CN85MX 38.6 miles 291° 2020-09-07 18:03:01
NPLNS 5 2020-09-07 14:28:46 2020-09-07 17:42:36 CN85VS > CN85MP 37.7 miles 256° 2020-09-07 17:42:36
W7LT 2 2020-09-07 15:32:00 2020-09-07 19:27:55 CN85SU > CN85RK 26.4 miles 186° 2020-09-07 19:27:55
N7QME-3 1 2020-09-07 15:53:50 2020-09-07 15:53:50 CN85UQ > CN85XO 12.6 miles 107° 2020-09-07 15:53:50
SHERWD 7 2020-09-07 14:23:54 2020-09-07 16:00:58 CN85UQ > CN85NJ 35.4 miles 231° 2020-09-07 14:29:54
MARBLE 1 2020-09-07 17:07:09 2020-09-07 17:07:09 CN85UT > CN86WC 23.3 miles 21° 2020-09-07 17:07:09
BULLMT 1 2020-09-07 18:05:00 2020-09-07 18:05:00 CN85VS > CN85OK 37.7 miles 229° 2020-09-07 18:05:00
WA7RGO-10 13 2020-09-07 14:09:21 2020-09-07 20:04:33 CN85VS > CN85MI 44.9 miles 227° 2020-09-07 18:10:08
K7GFH 12 2020-09-07 14:16:53 2020-09-07 16:15:54 CN85UR > CN85UK 18.2 miles 179° 2020-09-07 16:10:27
KJ4TX-10 15 2020-09-07 14:20:50 2020-09-07 16:10:58 CN85UQ > CN85MM 35.1 miles 250° 2020-09-07 16:02:35
W7RWP-10 2 2020-09-07 14:59:11 2020-09-07 15:06:44 CN85UQ > CN85RI 28.1 miles 210° 2020-09-07 14:59:11
FISHWK 4 2020-09-07 14:31:57 2020-09-07 16:00:18 CN85UQ > CN86HB 57.6 miles 295° 2020-09-07 16:00:18
ND7Y-1 19 2020-09-07 13:44:28 2020-09-07 18:50:54 CN85VS > CN85PP 22.7 miles 246° 2020-09-07 18:14:37

Only position packets which were originated by the station are shown here. The range statistics show some extra long hops, because some digipeaters do not correctly add themselves to the digipeater path. Please check the raw packets.
About this site
This page shows real-time information collected from the Automatic Position Reporting System Internet network (APRS-IS). APRS is used by amateur (ham) radio operators to transmit real-time position information, weather data, telemetry and messages over the radio. A vehicle equipped with a GPS receiver, a VHF transmitter or HF transceiver and a small computer device called a tracker transmits it's location, speed and course in a small data packet, which is then received by a nearby iGate receiving site which forwards the packet on the Internet. Systems connected to the Internet can send information on the APRS-IS without a radio transmitter, or collect and display information transmitted anywhere in the world.
User guide · FAQ · Blog · Discussion group · Linking to aprs.fi · AIS sites · Service status · Database statistics · Advertising on aprs.fi · Technical details · API · Change log · Planned changes · Credits and thanks · Terms Of Service · iPhone/iPad APRS